Terminal Aerodrome Forecast
Issued by NWS Shreveport, LA

Home | Current Version | Previous Version | Text Only | Print | Product List | Glossary On
Versions: 1 2 3 4 5 6 7 8 9 10 11 12 13
778
FTUS44 KSHV 240538
TAFGGG
TAF
KGGG 240538Z 2406/2506 15003KT P6SM SCT250
     FM240900 22007KT P6SM SCT015 BKN040
      TEMPO 2410/2414 OVC015
     FM241600 23009KT P6SM VCTS BKN040CB BKN100
      TEMPO 2418/2422 VRB15G25KT 4SM -TSRA OVC040CB
     FM250000 18005KT P6SM BKN110=

USA.gov is the U.S. government's official web portal to all federal, state and local government web resources and services.